createdAt,value
2019-03-05T00:01:57.187Z,1.60
2019-03-05T00:04:26.210Z,1.97
2019-03-05T00:06:55.244Z,1.17
2019-03-05T00:09:24.589Z,1.13
2019-03-05T00:11:53.708Z,1.10
2019-03-05T00:14:25.976Z,1.03
2019-03-05T00:16:54.987Z,1.13
2019-03-05T00:19:24.162Z,1.00
2019-03-05T00:21:53.481Z,1.30
2019-03-05T00:25:00.747Z,1.60
2019-03-05T00:27:32.788Z,1.50
2019-03-05T00:30:44.197Z,1.70
2019-03-05T00:33:48.400Z,1.10
2019-03-05T00:36:42.742Z,0.77
2019-03-05T00:39:34.670Z,0.90
2019-03-05T00:42:40.246Z,0.70
2019-03-05T00:45:56.413Z,0.80
2019-03-05T00:48:58.307Z,1.00
2019-03-05T00:51:54.857Z,0.80
2019-03-05T00:54:53.414Z,0.87
2019-03-05T00:57:45.226Z,1.63
2019-03-05T01:00:54.568Z,0.70
2019-03-05T01:03:45.838Z,1.00
2019-03-05T01:06:25.243Z,0.67
2019-03-05T01:08:55.685Z,0.60
2019-03-05T01:11:25.409Z,0.90
2019-03-05T01:13:54.624Z,0.87
2019-03-05T01:16:28.502Z,1.30
2019-03-05T01:18:57.695Z,1.17
2019-03-05T01:21:26.880Z,1.70
2019-03-05T01:23:56.198Z,1.50
2019-03-05T01:26:25.379Z,1.20
2019-03-05T01:28:56.751Z,1.30
2019-03-05T01:31:53.898Z,1.37
2019-03-05T01:34:34.224Z,1.50
2019-03-05T01:37:03.746Z,1.83
2019-03-05T01:39:51.891Z,1.90
2019-03-05T01:42:21.114Z,1.70
2019-03-05T01:44:50.342Z,2.13
2019-03-05T01:47:19.493Z,1.50
2019-03-05T01:49:48.439Z,1.80
2019-03-05T01:52:17.556Z,1.90
2019-03-05T01:54:46.907Z,1.93
2019-03-05T01:57:16.071Z,1.67
2019-03-05T01:59:45.284Z,1.57
2019-03-05T02:02:14.519Z,2.00
2019-03-05T02:04:43.651Z,1.83
2019-03-05T02:07:12.787Z,1.87
2019-03-05T02:09:41.989Z,2.03
2019-03-05T02:12:11.108Z,1.77
2019-03-05T02:14:40.199Z,1.60
2019-03-05T02:17:09.693Z,1.93
2019-03-05T02:19:47.023Z,1.87
2019-03-05T02:22:22.859Z,1.60
2019-03-05T02:25:19.219Z,1.47
2019-03-05T02:28:02.511Z,1.90
2019-03-05T02:31:01.286Z,1.47
2019-03-05T02:34:03.595Z,1.73
2019-03-05T02:37:16.127Z,1.50
2019-03-05T02:39:57.442Z,1.20
2019-03-05T02:43:07.476Z,0.83
2019-03-05T02:45:53.983Z,1.07
2019-03-05T02:48:45.679Z,1.60
2019-03-05T02:51:31.114Z,0.70
2019-03-05T02:54:26.110Z,1.17
2019-03-05T02:57:11.584Z,0.73
2019-03-05T02:59:40.729Z,0.83
2019-03-05T03:02:35.552Z,0.77
2019-03-05T03:05:28.710Z,0.60
2019-03-05T03:07:57.810Z,1.10
2019-03-05T03:10:27.086Z,0.57
2019-03-05T03:12:56.199Z,1.00
2019-03-05T03:15:25.341Z,0.77
2019-03-05T03:17:54.451Z,0.70
2019-03-05T03:20:24.014Z,0.70
2019-03-05T03:22:53.223Z,0.80
2019-03-05T03:25:23.376Z,0.90
2019-03-05T03:27:52.878Z,1.10
2019-03-05T03:30:28.656Z,0.60
2019-03-05T03:32:57.960Z,0.70
2019-03-05T03:35:27.179Z,0.90
2019-03-05T03:37:56.150Z,0.97
2019-03-05T03:40:25.443Z,0.60
2019-03-05T03:42:54.978Z,0.97
2019-03-05T03:45:25.348Z,1.00
2019-03-05T03:47:54.478Z,0.67
2019-03-05T03:50:23.678Z,0.53
2019-03-05T03:52:52.818Z,0.63
2019-03-05T03:55:22.221Z,0.53
2019-03-05T03:57:51.429Z,0.70
2019-03-05T04:00:25.417Z,0.93
2019-03-05T04:02:55.363Z,0.90
2019-03-05T04:05:24.692Z,0.60
2019-03-05T04:07:53.909Z,0.60
2019-03-05T04:10:22.996Z,0.77
2019-03-05T04:12:52.097Z,0.90
2019-03-05T04:15:21.641Z,0.83
2019-03-05T04:17:51.158Z,0.97
2019-03-05T04:20:32.313Z,0.80
2019-03-05T04:23:01.510Z,0.77
2019-03-05T04:25:30.656Z,0.70
2019-03-05T04:27:59.884Z,0.57
2019-03-05T04:30:28.971Z,0.80
2019-03-05T04:32:58.118Z,0.70
2019-03-05T04:35:27.293Z,0.70
2019-03-05T04:37:56.331Z,0.87
2019-03-05T04:40:25.500Z,0.90
2019-03-05T04:42:54.725Z,1.10
2019-03-05T04:45:36.081Z,0.80
2019-03-05T04:48:05.314Z,0.83
2019-03-05T04:50:42.351Z,1.40
2019-03-05T04:53:11.456Z,1.10
2019-03-05T04:55:40.642Z,1.03
2019-03-05T04:58:09.704Z,0.73
2019-03-05T05:00:39.037Z,1.30
2019-03-05T05:03:08.177Z,0.67
2019-03-05T05:05:37.470Z,1.27
2019-03-05T05:08:06.964Z,1.20
2019-03-05T05:10:35.943Z,1.37
2019-03-05T05:13:05.166Z,1.23
2019-03-05T05:15:34.353Z,1.47
2019-03-05T05:18:03.902Z,1.00
2019-03-05T05:20:33.047Z,1.10
2019-03-05T05:23:02.336Z,1.20
2019-03-05T05:25:31.579Z,1.10
2019-03-05T05:28:00.974Z,1.10
2019-03-05T05:30:34.463Z,1.00
2019-03-05T05:33:03.767Z,1.07
2019-03-05T05:35:33.008Z,1.77
2019-03-05T05:38:02.200Z,1.20
2019-03-05T05:40:39.129Z,0.90
2019-03-05T05:43:14.142Z,0.80
2019-03-05T05:45:47.923Z,0.80
2019-03-05T05:48:17.347Z,0.93
2019-03-05T05:50:46.881Z,0.90
2019-03-05T05:53:16.037Z,1.37
2019-03-05T05:55:45.193Z,1.60
2019-03-05T05:58:14.631Z,1.33
2019-03-05T06:00:45.923Z,1.17
2019-03-05T06:03:15.113Z,0.60
2019-03-05T06:05:44.427Z,1.47
2019-03-05T06:08:13.519Z,0.83
2019-03-05T06:10:42.664Z,1.07
2019-03-05T06:13:11.814Z,1.30
2019-03-05T06:15:42.991Z,1.10
2019-03-05T06:18:12.088Z,1.07
2019-03-05T06:20:42.630Z,1.00
2019-03-05T06:23:15.185Z,0.63
2019-03-05T06:25:44.251Z,1.47
2019-03-05T06:28:13.718Z,1.13
2019-03-05T06:30:42.923Z,1.30
2019-03-05T06:33:11.986Z,1.37
2019-03-05T06:35:41.195Z,0.97
2019-03-05T06:38:10.696Z,1.27
2019-03-05T06:40:39.867Z,1.30
2019-03-05T06:43:11.908Z,1.30
2019-03-05T06:45:40.997Z,1.20
2019-03-05T06:48:10.164Z,1.30
2019-03-05T06:50:39.373Z,1.20
2019-03-05T06:53:08.498Z,1.23
2019-03-05T06:55:37.862Z,0.90
2019-03-05T06:58:07.015Z,1.00
2019-03-05T07:00:37.453Z,1.60
2019-03-05T07:03:07.098Z,0.80
2019-03-05T07:06:11.535Z,0.80
2019-03-05T07:08:43.819Z,1.00
2019-03-05T07:11:26.355Z,1.10
2019-03-05T07:13:55.601Z,1.10
2019-03-05T07:16:35.727Z,1.07
2019-03-05T07:19:32.816Z,1.20
2019-03-05T07:22:19.771Z,0.87
2019-03-05T07:24:49.794Z,1.47
2019-03-05T07:27:36.575Z,0.90
2019-03-05T07:30:15.140Z,1.00
2019-03-05T07:32:44.242Z,0.80
2019-03-05T07:35:15.200Z,0.90
2019-03-05T07:37:44.262Z,1.23
2019-03-05T07:40:13.537Z,1.20
2019-03-05T07:42:42.734Z,1.43
2019-03-05T07:45:12.046Z,1.23
2019-03-05T07:47:41.483Z,1.57
2019-03-05T07:50:10.734Z,0.80
2019-03-05T07:52:39.969Z,1.50
2019-03-05T07:55:13.892Z,1.20
2019-03-05T07:57:42.851Z,1.20
2019-03-05T08:00:16.961Z,1.07
2019-03-05T08:02:46.208Z,1.33
2019-03-05T08:05:15.799Z,1.40
2019-03-05T08:07:45.140Z,1.33
2019-03-05T08:10:39.375Z,1.20
2019-03-05T08:14:01.996Z,0.97
2019-03-05T08:16:31.680Z,1.20
2019-03-05T08:19:00.811Z,1.10
2019-03-05T08:21:29.942Z,1.23
2019-03-05T08:23:59.034Z,1.10
2019-03-05T08:26:30.018Z,0.90
2019-03-05T08:28:59.351Z,0.90
2019-03-05T08:31:28.534Z,1.30
2019-03-05T08:33:57.678Z,1.33
2019-03-05T08:36:26.714Z,0.90
2019-03-05T08:38:55.835Z,1.00
2019-03-05T08:41:25.016Z,1.03
2019-03-05T08:43:54.444Z,1.17
2019-03-05T08:46:23.569Z,0.93
2019-03-05T08:48:52.592Z,1.00
2019-03-05T08:51:21.976Z,1.10
2019-03-05T08:53:51.043Z,1.03
2019-03-05T08:56:19.996Z,1.00
2019-03-05T08:58:49.053Z,1.30
2019-03-05T09:01:18.324Z,1.57
2019-03-05T09:03:47.750Z,0.90
2019-03-05T09:06:17.049Z,1.33
2019-03-05T09:08:46.415Z,1.37
2019-03-05T09:11:15.527Z,1.47
2019-03-05T09:13:44.608Z,1.40
2019-03-05T09:16:13.702Z,1.00
2019-03-05T09:18:42.808Z,1.30
2019-03-05T09:21:11.806Z,1.70
2019-03-05T09:23:40.878Z,1.10
2019-03-05T09:26:10.587Z,1.27
2019-03-05T09:28:39.850Z,1.10
2019-03-05T09:31:09.189Z,0.80
2019-03-05T09:33:38.393Z,1.20
2019-03-05T09:36:07.433Z,1.20
2019-03-05T09:38:36.676Z,0.80
2019-03-05T09:41:05.847Z,0.90
2019-03-05T09:43:35.055Z,0.70
2019-03-05T09:46:04.348Z,1.30
2019-03-05T09:48:33.577Z,1.10
2019-03-05T09:51:03.074Z,0.97
2019-03-05T09:53:32.304Z,1.27
2019-03-05T09:56:01.400Z,0.70
2019-03-05T09:58:30.771Z,1.07
2019-03-05T10:00:59.740Z,1.10
2019-03-05T10:03:28.783Z,1.33
2019-03-05T10:05:57.843Z,1.33
2019-03-05T10:08:32.494Z,1.33
2019-03-05T10:10:57.928Z,1.10
2019-03-05T10:13:27.376Z,0.90
2019-03-05T10:15:56.515Z,1.37
2019-03-05T10:18:25.651Z,1.23
2019-03-05T10:20:54.750Z,1.10
2019-03-05T10:23:23.888Z,0.90
2019-03-05T10:25:53.047Z,1.00
2019-03-05T10:28:22.412Z,1.00
2019-03-05T10:30:51.543Z,0.77
2019-03-05T10:33:20.970Z,0.93
2019-03-05T10:35:50.055Z,0.90
2019-03-05T10:38:19.823Z,1.10
2019-03-05T10:40:49.578Z,0.93
2019-03-05T10:43:19.158Z,1.20
2019-03-05T10:45:48.349Z,0.63
2019-03-05T10:48:18.398Z,0.57
2019-03-05T10:50:47.727Z,1.03
2019-03-05T10:53:16.934Z,0.80
2019-03-05T10:55:46.092Z,1.03
2019-03-05T10:58:16.160Z,0.73
2019-03-05T11:00:46.460Z,1.13
2019-03-05T11:03:16.094Z,0.70
2019-03-05T11:05:45.354Z,0.70
2019-03-05T11:08:19.363Z,0.90
2019-03-05T11:10:48.847Z,1.13
2019-03-05T11:13:18.004Z,0.80
2019-03-05T11:15:48.521Z,0.87
2019-03-05T11:18:28.681Z,1.17
2019-03-05T11:20:48.991Z,1.00
2019-03-05T11:24:18.032Z,0.40
2019-03-05T11:26:47.235Z,0.57
2019-03-05T11:29:16.306Z,0.77
2019-03-05T11:32:12.994Z,0.70
2019-03-05T11:34:47.268Z,0.60
2019-03-05T11:41:57.725Z,0.60
2019-03-05T11:44:18.955Z,0.50
2019-03-05T11:46:51.236Z,0.80
2019-03-05T11:49:20.400Z,0.83
2019-03-05T11:51:50.066Z,0.50
2019-03-05T11:57:48.555Z,0.90
2019-03-05T12:01:02.299Z,1.00
2019-03-05T12:04:20.778Z,0.73
2019-03-05T12:06:52.059Z,0.50
2019-03-05T12:09:21.902Z,0.80
2019-03-05T12:11:50.907Z,0.73
2019-03-05T12:14:48.557Z,0.83
2019-03-05T12:17:20.800Z,0.70
2019-03-05T12:20:16.908Z,0.83
2019-03-05T12:22:46.212Z,0.90
2019-03-05T12:25:16.419Z,0.80
2019-03-05T12:27:46.426Z,0.60
2019-03-05T12:30:18.847Z,0.53
2019-03-05T12:32:48.045Z,0.80
2019-03-05T12:35:17.226Z,0.50
2019-03-05T12:37:46.420Z,0.77
2019-03-05T12:40:16.094Z,0.60
2019-03-05T12:42:45.299Z,0.93
2019-03-05T12:45:14.985Z,0.87
2019-03-05T12:47:44.205Z,0.70
2019-03-05T12:50:16.986Z,0.97
2019-03-05T12:52:47.686Z,0.47
2019-03-05T12:55:16.956Z,0.67
2019-03-05T12:57:46.700Z,0.70
2019-03-05T13:00:19.916Z,1.07
2019-03-05T13:02:49.266Z,0.40
2019-03-05T13:05:18.534Z,1.50
2019-03-05T13:07:52.472Z,0.60
2019-03-05T13:10:20.902Z,0.50
2019-03-05T13:12:50.040Z,0.57
2019-03-05T13:15:21.781Z,0.73
2019-03-05T13:17:51.629Z,0.50
2019-03-05T13:20:22.500Z,0.70
2019-03-05T13:22:53.025Z,0.50
2019-03-05T13:25:24.217Z,0.60
2019-03-05T13:27:53.417Z,0.90
2019-03-05T13:30:25.883Z,0.73
2019-03-05T13:32:53.978Z,0.67
2019-03-05T13:35:25.379Z,0.70
2019-03-05T13:37:55.758Z,0.50
2019-03-05T13:40:26.341Z,0.50
2019-03-05T13:42:56.067Z,0.50
2019-03-05T13:45:25.604Z,4.40
2019-03-05T13:48:07.485Z,1.77
2019-03-05T13:50:57.702Z,1.00
2019-03-05T13:54:00.910Z,0.83
2019-03-05T13:56:55.957Z,0.73
2019-03-05T13:59:46.197Z,1.03
2019-03-05T14:02:19.056Z,0.60
2019-03-05T14:05:22.661Z,0.50
2019-03-05T14:08:32.294Z,0.40
2019-03-05T14:11:01.430Z,0.60
2019-03-05T14:13:30.584Z,0.60
2019-03-05T14:16:00.344Z,0.80
2019-03-05T14:18:31.194Z,0.83
2019-03-05T14:21:00.451Z,0.50
2019-03-05T14:23:29.766Z,0.60
2019-03-05T14:25:58.930Z,0.70
2019-03-05T14:28:28.138Z,0.60
2019-03-05T14:30:57.423Z,0.63
2019-03-05T14:33:26.606Z,0.67
2019-03-05T14:35:56.186Z,0.50
2019-03-05T14:38:33.358Z,0.53
2019-03-05T14:41:02.736Z,0.80
2019-03-05T14:43:32.136Z,0.57
2019-03-05T14:46:01.376Z,0.50
2019-03-05T14:48:31.052Z,0.50
2019-03-05T14:51:00.498Z,0.60
2019-03-05T14:53:48.778Z,0.60
2019-03-05T14:56:18.818Z,0.40
2019-03-05T14:58:48.342Z,0.60
2019-03-05T15:01:17.585Z,0.40
2019-03-05T15:03:49.399Z,0.80
2019-03-05T15:06:19.209Z,0.37
2019-03-05T15:08:48.519Z,0.77
2019-03-05T15:11:17.602Z,0.20
2019-03-05T15:13:46.877Z,0.90
2019-03-05T15:16:16.283Z,0.63
2019-03-05T15:18:45.411Z,0.47
2019-03-05T15:21:14.585Z,0.80
2019-03-05T15:23:43.811Z,0.53
2019-03-05T15:26:13.983Z,0.80
2019-03-05T15:28:55.407Z,0.53
2019-03-05T15:31:14.150Z,0.80
2019-03-05T15:33:43.316Z,0.70
2019-03-05T15:36:23.328Z,0.57
2019-03-05T15:38:43.475Z,0.93
2019-03-05T15:41:12.689Z,0.80
2019-03-05T15:43:41.966Z,0.53
2019-03-05T15:46:13.469Z,0.83
2019-03-05T15:48:42.882Z,0.80
2019-03-05T15:51:11.844Z,1.10
2019-03-05T15:53:41.065Z,0.80
2019-03-05T15:56:10.269Z,0.87
2019-03-05T15:58:39.547Z,0.87
2019-03-05T16:01:09.923Z,0.70
2019-03-05T16:03:39.695Z,0.67
2019-03-05T16:06:08.816Z,0.70
2019-03-05T16:08:37.891Z,0.70
2019-03-05T16:11:07.020Z,0.80
2019-03-05T16:13:36.076Z,0.70
2019-03-05T16:16:05.237Z,0.90
2019-03-05T16:18:34.522Z,0.60
2019-03-05T16:21:06.888Z,0.50
2019-03-05T16:23:35.083Z,0.80
2019-03-05T16:26:04.190Z,0.70
2019-03-05T16:28:33.416Z,0.83
2019-03-05T16:31:36.860Z,0.80
2019-03-05T16:34:19.034Z,0.80
2019-03-05T16:37:13.099Z,0.80
2019-03-05T16:40:08.994Z,0.77
2019-03-05T16:43:05.763Z,0.90
2019-03-05T16:45:53.943Z,0.70
2019-03-05T16:48:32.674Z,0.90
2019-03-05T16:51:26.916Z,0.83
2019-03-05T16:54:27.379Z,0.80
2019-03-05T16:57:05.356Z,0.80
2019-03-05T16:59:48.178Z,0.87
2019-03-05T17:02:36.462Z,0.70
2019-03-05T17:05:27.475Z,0.60
2019-03-05T17:08:15.755Z,0.70
2019-03-05T17:11:06.832Z,0.90
2019-03-05T17:13:36.033Z,1.17
2019-03-05T17:16:05.292Z,1.00
2019-03-05T17:18:34.415Z,1.03
2019-03-05T17:21:03.633Z,1.00
2019-03-05T17:23:33.887Z,1.20
2019-03-05T17:26:03.278Z,0.80
2019-03-05T17:28:32.454Z,0.60
2019-03-05T17:31:01.955Z,0.83
2019-03-05T17:33:31.159Z,0.93
2019-03-05T17:36:00.273Z,0.80
2019-03-05T17:38:48.483Z,1.00
2019-03-05T17:41:17.856Z,1.10
2019-03-05T17:43:49.764Z,0.93
2019-03-05T17:46:20.416Z,0.50
2019-03-05T17:48:51.237Z,1.10
2019-03-05T17:51:42.460Z,1.10
2019-03-05T17:54:11.861Z,1.10
2019-03-05T17:57:00.336Z,1.40
2019-03-05T17:59:29.569Z,1.10
2019-03-05T18:01:59.332Z,0.90
2019-03-05T18:04:30.381Z,0.80
2019-03-05T18:07:01.896Z,1.10
2019-03-05T18:09:30.992Z,1.10
2019-03-05T18:12:02.988Z,0.77
2019-03-05T18:14:32.145Z,0.80
2019-03-05T18:17:01.445Z,1.00
2019-03-05T18:19:30.654Z,1.07
2019-03-05T18:21:59.823Z,0.90
2019-03-05T18:24:29.029Z,0.87
2019-03-05T18:26:58.251Z,0.97
2019-03-05T18:29:52.527Z,0.97
2019-03-05T18:32:21.881Z,0.97
2019-03-05T18:34:51.101Z,1.13
2019-03-05T18:37:20.478Z,0.67
2019-03-05T18:39:54.202Z,1.00
2019-03-05T18:42:27.172Z,1.07
2019-03-05T18:44:56.346Z,1.10
2019-03-05T18:47:25.425Z,1.33
2019-03-05T18:49:55.145Z,1.43
2019-03-05T18:52:24.934Z,1.40
2019-03-05T18:54:54.864Z,1.10
2019-03-05T19:00:37.875Z,1.50
2019-03-05T19:03:10.196Z,1.63
2019-03-05T19:08:56.837Z,1.30
2019-03-05T19:11:45.280Z,1.60
2019-03-05T19:14:18.870Z,1.23
2019-03-05T19:16:55.155Z,1.07
2019-03-05T19:22:44.651Z,0.97
2019-03-05T19:25:52.447Z,1.53
2019-03-05T19:29:25.087Z,1.07
2019-03-05T19:37:35.356Z,1.27
2019-03-05T19:50:10.840Z,1.93
2019-03-05T19:53:33.679Z,1.50
2019-03-05T19:56:43.699Z,1.53
2019-03-05T19:59:38.351Z,1.80
2019-03-05T20:02:22.610Z,1.83
2019-03-05T20:11:42.092Z,1.70
2019-03-05T20:17:58.872Z,1.60
2019-03-05T20:20:43.044Z,1.97
2019-03-05T20:23:19.963Z,1.70
2019-03-05T20:26:08.363Z,1.50
2019-03-05T20:28:44.908Z,2.10
2019-03-05T20:35:44.801Z,1.70
2019-03-05T20:38:37.593Z,1.60
2019-03-05T20:41:30.746Z,1.47
2019-03-05T20:43:57.194Z,1.30
2019-03-05T20:46:29.694Z,1.40
2019-03-05T20:49:01.979Z,1.77
2019-03-05T20:51:31.159Z,1.50
2019-03-05T20:54:00.130Z,1.10
2019-03-05T20:56:29.328Z,1.10
2019-03-05T20:58:58.720Z,1.17
2019-03-05T21:01:27.979Z,1.50
2019-03-05T21:03:57.086Z,1.30
2019-03-05T21:06:26.199Z,1.20
2019-03-05T21:08:55.329Z,1.30
2019-03-05T21:11:24.551Z,1.60
2019-03-05T21:13:53.808Z,1.50
2019-03-05T21:16:22.982Z,1.27
2019-03-05T21:18:52.239Z,1.33
2019-03-05T21:21:22.513Z,1.30
2019-03-05T21:23:51.800Z,1.20
2019-03-05T21:26:20.906Z,1.60
2019-03-05T21:28:49.847Z,1.30
2019-03-05T21:31:18.922Z,1.83
2019-03-05T21:34:07.188Z,1.50
2019-03-05T21:36:36.207Z,1.27
2019-03-05T21:39:11.675Z,1.23
2019-03-05T21:41:41.076Z,1.20
2019-03-05T21:44:10.011Z,1.23
2019-03-05T21:46:39.094Z,1.73
2019-03-05T21:49:11.060Z,1.90
2019-03-05T21:51:40.088Z,2.07
2019-03-05T21:54:09.131Z,1.60
2019-03-05T21:56:38.320Z,1.77
2019-03-05T21:59:07.270Z,1.30
2019-03-05T22:01:36.287Z,1.47
2019-03-05T22:04:05.378Z,2.00
2019-03-05T22:06:34.450Z,1.77
2019-03-05T22:09:04.883Z,2.20
2019-03-05T22:11:33.849Z,1.53
2019-03-05T22:14:02.883Z,1.63
2019-03-05T22:16:31.974Z,1.70
2019-03-05T22:19:01.100Z,2.00
2019-03-05T22:21:30.323Z,1.80
2019-03-05T22:23:59.623Z,1.80
2019-03-05T22:26:28.756Z,1.87
2019-03-05T22:28:57.670Z,1.90
2019-03-05T22:31:27.006Z,1.87
2019-03-05T22:33:56.031Z,1.57
2019-03-05T22:36:25.263Z,2.07
2019-03-05T22:38:54.322Z,2.17
2019-03-05T22:41:23.376Z,2.83
2019-03-05T22:43:52.341Z,2.23
2019-03-05T22:46:21.259Z,2.37
2019-03-05T22:48:50.386Z,2.40
2019-03-05T22:51:19.336Z,1.37
2019-03-05T22:53:48.282Z,1.83
2019-03-05T22:56:17.344Z,2.50
2019-03-05T22:58:46.554Z,1.70
2019-03-05T23:01:22.907Z,1.70
2019-03-05T23:04:01.102Z,1.60
2019-03-05T23:06:30.195Z,2.07
2019-03-05T23:08:59.410Z,2.00
2019-03-05T23:11:28.787Z,2.40
2019-03-05T23:13:57.972Z,1.80
2019-03-05T23:16:28.735Z,1.70
2019-03-05T23:18:57.810Z,1.90
2019-03-05T23:21:26.856Z,1.87
2019-03-05T23:23:56.071Z,2.23
2019-03-05T23:26:25.224Z,1.60
2019-03-05T23:28:54.326Z,1.40
2019-03-05T23:31:23.429Z,1.53
2019-03-05T23:33:52.575Z,2.07
2019-03-05T23:36:21.572Z,1.67
2019-03-05T23:38:50.483Z,1.77
2019-03-05T23:41:19.504Z,1.47
2019-03-05T23:43:48.642Z,1.43
2019-03-05T23:46:17.611Z,2.00
2019-03-05T23:48:46.510Z,1.47
2019-03-05T23:51:15.515Z,1.20
2019-03-05T23:53:44.763Z,1.70
2019-03-05T23:56:13.854Z,1.70
2019-03-05T23:58:42.788Z,1.97
